sensor_id;sensor_type;location;lat;lon;timestamp;pressure;altitude;pressure_sealevel;temperature;humidity
16595;BME280;8410;52.532;13.336;2023-03-01T00:01:09;102712.91;;;4.80;84.63
16595;BME280;8410;52.532;13.336;2023-03-01T00:03:37;102712.28;;;6.01;82.33
16595;BME280;8410;52.532;13.336;2023-03-01T00:06:07;102708.13;;;6.16;77.28
16595;BME280;8410;52.532;13.336;2023-03-01T00:08:35;102702.06;;;6.42;76.51
16595;BME280;8410;52.532;13.336;2023-03-01T00:11:05;102700.22;;;5.06;64.63
16595;BME280;8410;52.532;13.336;2023-03-01T00:13:33;102711.13;;;4.29;65.51
16595;BME280;8410;52.532;13.336;2023-03-01T00:16:02;102716.75;;;3.64;67.16
16595;BME280;8410;52.532;13.336;2023-03-01T00:18:29;102708.09;;;3.39;68.13
16595;BME280;8410;52.532;13.336;2023-03-01T00:20:57;102701.63;;;3.20;68.55
16595;BME280;8410;52.532;13.336;2023-03-01T00:23:26;102702.72;;;3.12;68.78
16595;BME280;8410;52.532;13.336;2023-03-01T00:25:54;102700.59;;;2.95;68.76
16595;BME280;8410;52.532;13.336;2023-03-01T00:28:21;102697.84;;;2.92;69.46
16595;BME280;8410;52.532;13.336;2023-03-01T00:30:49;102692.31;;;2.97;69.03
16595;BME280;8410;52.532;13.336;2023-03-01T00:33:17;102693.06;;;2.84;68.82
16595;BME280;8410;52.532;13.336;2023-03-01T00:35:44;102696.03;;;2.79;69.97
16595;BME280;8410;52.532;13.336;2023-03-01T00:38:12;102696.59;;;2.86;69.60
16595;BME280;8410;52.532;13.336;2023-03-01T00:40:40;102701.66;;;2.53;69.90
16595;BME280;8410;52.532;13.336;2023-03-01T00:43:08;102709.97;;;2.28;71.54
16595;BME280;8410;52.532;13.336;2023-03-01T00:45:36;102701.13;;;2.13;71.77
16595;BME280;8410;52.532;13.336;2023-03-01T00:48:04;102704.88;;;2.28;72.21
16595;BME280;8410;52.532;13.336;2023-03-01T00:50:32;102703.41;;;2.20;72.12
16595;BME280;8410;52.532;13.336;2023-03-01T00:52:59;102700.84;;;2.20;72.50
16595;BME280;8410;52.532;13.336;2023-03-01T00:55:27;102702.16;;;2.15;72.78
16595;BME280;8410;52.532;13.336;2023-03-01T00:57:55;102703.94;;;2.06;73.38
16595;BME280;8410;52.532;13.336;2023-03-01T01:00:23;102695.31;;;2.14;73.77
16595;BME280;8410;52.532;13.336;2023-03-01T01:02:54;102690.91;;;2.23;73.13
16595;BME280;8410;52.532;13.336;2023-03-01T01:05:21;102688.47;;;2.03;73.45
16595;BME280;8410;52.532;13.336;2023-03-01T01:07:48;102689.19;;;1.90;73.94
16595;BME280;8410;52.532;13.336;2023-03-01T01:10:16;102692.25;;;2.08;72.81
16595;BME280;8410;52.532;13.336;2023-03-01T01:12:44;102684.31;;;2.25;73.10
16595;BME280;8410;52.532;13.336;2023-03-01T01:15:13;102679.22;;;2.25;72.41
16595;BME280;8410;52.532;13.336;2023-03-01T01:17:42;102677.06;;;1.97;72.18
16595;BME280;8410;52.532;13.336;2023-03-01T01:20:11;102667.50;;;2.27;71.94
16595;BME280;8410;52.532;13.336;2023-03-01T01:22:39;102672.31;;;2.12;71.74
16595;BME280;8410;52.532;13.336;2023-03-01T01:25:07;102673.59;;;2.29;71.53
16595;BME280;8410;52.532;13.336;2023-03-01T01:27:34;102663.84;;;2.46;71.00
16595;BME280;8410;52.532;13.336;2023-03-01T01:30:03;102664.91;;;2.37;71.26
16595;BME280;8410;52.532;13.336;2023-03-01T01:32:32;102659.41;;;2.43;71.00
16595;BME280;8410;52.532;13.336;2023-03-01T01:34:59;102648.84;;;2.49;71.28
16595;BME280;8410;52.532;13.336;2023-03-01T01:37:26;102648.53;;;2.34;71.53
16595;BME280;8410;52.532;13.336;2023-03-01T01:40:00;102637.88;;;2.38;71.72
16595;BME280;8410;52.532;13.336;2023-03-01T01:42:30;102640.56;;;2.29;70.50
16595;BME280;8410;52.532;13.336;2023-03-01T01:48:06;102646.06;;;2.24;71.21
16595;BME280;8410;52.532;13.336;2023-03-01T01:50:40;102642.34;;;2.30;71.03
16595;BME280;8410;52.532;13.336;2023-03-01T01:53:13;102641.63;;;2.21;71.41
16595;BME280;8410;52.532;13.336;2023-03-01T01:55:43;102639.31;;;2.24;71.29
16595;BME280;8410;52.532;13.336;2023-03-01T01:58:15;102638.34;;;2.22;71.55
16595;BME280;8410;52.532;13.336;2023-03-01T02:00:43;102638.81;;;2.28;71.20
16595;BME280;8410;52.532;13.336;2023-03-01T02:03:14;102638.91;;;2.30;71.26
16595;BME280;8410;52.532;13.336;2023-03-01T02:05:47;102647.91;;;2.36;71.55
16595;BME280;8410;52.532;13.336;2023-03-01T02:08:23;102645.19;;;2.23;72.38
16595;BME280;8410;52.532;13.336;2023-03-01T02:10:54;102649.44;;;2.34;71.14
16595;BME280;8410;52.532;13.336;2023-03-01T02:13:23;102652.84;;;2.35;70.86
16595;BME280;8410;52.532;13.336;2023-03-01T02:15:50;102647.97;;;2.04;71.38
16595;BME280;8410;52.532;13.336;2023-03-01T02:18:21;102659.47;;;2.11;72.02
16595;BME280;8410;52.532;13.336;2023-03-01T02:20:59;102656.69;;;2.08;71.68
16595;BME280;8410;52.532;13.336;2023-03-01T02:23:30;102657.84;;;1.79;72.34
16595;BME280;8410;52.532;13.336;2023-03-01T02:26:02;102663.03;;;2.13;73.29
16595;BME280;8410;52.532;13.336;2023-03-01T02:28:36;102659.72;;;2.36;71.76
16595;BME280;8410;52.532;13.336;2023-03-01T02:31:05;102659.88;;;2.27;71.93
16595;BME280;8410;52.532;13.336;2023-03-01T02:33:53;102657.47;;;2.07;72.49
16595;BME280;8410;52.532;13.336;2023-03-01T02:36:24;102667.00;;;1.77;72.71
16595;BME280;8410;52.532;13.336;2023-03-01T02:38:54;102660.03;;;2.07;72.81
16595;BME280;8410;52.532;13.336;2023-03-01T02:41:25;102662.75;;;2.20;73.19
16595;BME280;8410;52.532;13.336;2023-03-01T02:43:55;102654.34;;;2.21;71.64
16595;BME280;8410;52.532;13.336;2023-03-01T02:46:25;102651.22;;;2.35;71.57
16595;BME280;8410;52.532;13.336;2023-03-01T02:48:54;102656.00;;;2.20;71.91
16595;BME280;8410;52.532;13.336;2023-03-01T02:51:31;102657.81;;;1.89;72.59
16595;BME280;8410;52.532;13.336;2023-03-01T02:54:10;102655.91;;;1.87;73.83
16595;BME280;8410;52.532;13.336;2023-03-01T02:56:40;102642.88;;;1.82;74.26
16595;BME280;8410;52.532;13.336;2023-03-01T02:59:10;102640.25;;;1.92;74.27
16595;BME280;8410;52.532;13.336;2023-03-01T03:01:38;102630.72;;;2.22;73.92
16595;BME280;8410;52.532;13.336;2023-03-01T03:04:06;102624.97;;;2.03;73.53
16595;BME280;8410;52.532;13.336;2023-03-01T03:06:34;102630.22;;;2.16;73.83
16595;BME280;8410;52.532;13.336;2023-03-01T03:09:02;102633.41;;;2.13;73.17
16595;BME280;8410;52.532;13.336;2023-03-01T03:11:30;102627.53;;;2.25;72.98
16595;BME280;8410;52.532;13.336;2023-03-01T03:13:58;102629.63;;;1.86;73.26
16595;BME280;8410;52.532;13.336;2023-03-01T03:16:27;102626.91;;;1.95;73.87
16595;BME280;8410;52.532;13.336;2023-03-01T03:18:56;102627.47;;;2.13;73.86
16595;BME280;8410;52.532;13.336;2023-03-01T03:21:31;102632.53;;;2.13;73.52
16595;BME280;8410;52.532;13.336;2023-03-01T03:23:59;102633.84;;;2.08;74.27
16595;BME280;8410;52.532;13.336;2023-03-01T03:26:26;102631.44;;;2.09;74.29
16595;BME280;8410;52.532;13.336;2023-03-01T03:28:54;102629.31;;;2.04;74.40
16595;BME280;8410;52.532;13.336;2023-03-01T03:31:23;102626.44;;;2.11;74.71
16595;BME280;8410;52.532;13.336;2023-03-01T03:33:51;102620.66;;;2.02;75.13
16595;BME280;8410;52.532;13.336;2023-03-01T03:36:20;102622.59;;;1.72;74.63
16595;BME280;8410;52.532;13.336;2023-03-01T03:38:48;102611.56;;;1.93;75.09
16595;BME280;8410;52.532;13.336;2023-03-01T03:41:16;102616.31;;;1.57;76.22
16595;BME280;8410;52.532;13.336;2023-03-01T03:43:44;102610.59;;;1.59;75.20
16595;BME280;8410;52.532;13.336;2023-03-01T03:46:12;102612.28;;;1.48;75.03
16595;BME280;8410;52.532;13.336;2023-03-01T03:48:41;102607.59;;;1.75;74.85
16595;BME280;8410;52.532;13.336;2023-03-01T03:51:12;102610.53;;;1.37;74.82
16595;BME280;8410;52.532;13.336;2023-03-01T03:53:40;102598.69;;;1.58;75.19
16595;BME280;8410;52.532;13.336;2023-03-01T03:56:09;102600.94;;;1.55;74.65
16595;BME280;8410;52.532;13.336;2023-03-01T03:58:37;102598.28;;;1.64;74.81
16595;BME280;8410;52.532;13.336;2023-03-01T04:01:05;102593.94;;;1.30;75.39
16595;BME280;8410;52.532;13.336;2023-03-01T04:03:33;102595.63;;;1.52;74.87
16595;BME280;8410;52.532;13.336;2023-03-01T04:06:01;102595.72;;;1.64;74.97
16595;BME280;8410;52.532;13.336;2023-03-01T04:08:31;102591.97;;;1.48;74.35
16595;BME280;8410;52.532;13.336;2023-03-01T04:11:00;102591.16;;;1.60;74.21
16595;BME280;8410;52.532;13.336;2023-03-01T04:13:49;102594.03;;;1.74;73.85
16595;BME280;8410;52.532;13.336;2023-03-01T04:16:17;102592.41;;;1.65;73.79
16595;BME280;8410;52.532;13.336;2023-03-01T04:18:45;102606.72;;;1.42;74.30
16595;BME280;8410;52.532;13.336;2023-03-01T04:21:13;102608.00;;;1.37;74.92
16595;BME280;8410;52.532;13.336;2023-03-01T04:23:42;102606.72;;;1.42;74.14
16595;BME280;8410;52.532;13.336;2023-03-01T04:26:10;102599.34;;;1.45;74.78
16595;BME280;8410;52.532;13.336;2023-03-01T04:28:39;102599.09;;;1.52;74.94
16595;BME280;8410;52.532;13.336;2023-03-01T04:31:12;102604.94;;;1.41;75.31
16595;BME280;8410;52.532;13.336;2023-03-01T04:33:45;102598.09;;;1.40;76.07
16595;BME280;8410;52.532;13.336;2023-03-01T04:36:15;102592.47;;;1.44;75.31
16595;BME280;8410;52.532;13.336;2023-03-01T04:38:45;102593.91;;;1.41;75.52
16595;BME280;8410;52.532;13.336;2023-03-01T04:41:16;102587.13;;;1.51;75.68
16595;BME280;8410;52.532;13.336;2023-03-01T04:43:43;102595.03;;;1.76;74.57
16595;BME280;8410;52.532;13.336;2023-03-01T04:46:14;102588.25;;;1.87;74.31
16595;BME280;8410;52.532;13.336;2023-03-01T04:48:43;102593.06;;;1.84;73.95
16595;BME280;8410;52.532;13.336;2023-03-01T04:51:11;102598.97;;;1.73;73.86
16595;BME280;8410;52.532;13.336;2023-03-01T04:53:41;102587.25;;;1.85;73.90
16595;BME280;8410;52.532;13.336;2023-03-01T04:56:10;102587.81;;;1.71;73.98
16595;BME280;8410;52.532;13.336;2023-03-01T04:58:37;102597.72;;;1.68;73.71
16595;BME280;8410;52.532;13.336;2023-03-01T05:01:09;102596.66;;;1.54;73.88
16595;BME280;8410;52.532;13.336;2023-03-01T05:03:42;102593.06;;;1.30;74.81
16595;BME280;8410;52.532;13.336;2023-03-01T05:06:10;102590.22;;;1.47;74.93
16595;BME280;8410;52.532;13.336;2023-03-01T05:08:38;102595.41;;;1.49;74.83
16595;BME280;8410;52.532;13.336;2023-03-01T05:11:06;102595.56;;;1.40;74.74
16595;BME280;8410;52.532;13.336;2023-03-01T05:13:37;102588.72;;;1.39;74.52
16595;BME280;8410;52.532;13.336;2023-03-01T05:16:06;102586.66;;;1.45;74.52
16595;BME280;8410;52.532;13.336;2023-03-01T05:18:39;102585.41;;;1.40;74.87
16595;BME280;8410;52.532;13.336;2023-03-01T05:21:08;102583.00;;;1.42;74.65
16595;BME280;8410;52.532;13.336;2023-03-01T05:23:37;102588.53;;;1.58;74.41
16595;BME280;8410;52.532;13.336;2023-03-01T05:26:05;102584.88;;;1.44;73.90
16595;BME280;8410;52.532;13.336;2023-03-01T05:28:52;102580.06;;;1.47;74.60
16595;BME280;8410;52.532;13.336;2023-03-01T05:31:22;102579.53;;;1.73;73.89
16595;BME280;8410;52.532;13.336;2023-03-01T05:33:50;102583.72;;;1.51;73.69
16595;BME280;8410;52.532;13.336;2023-03-01T05:36:19;102582.06;;;1.51;73.81
16595;BME280;8410;52.532;13.336;2023-03-01T05:38:46;102583.34;;;1.46;74.56
16595;BME280;8410;52.532;13.336;2023-03-01T05:41:14;102593.03;;;1.40;75.27
16595;BME280;8410;52.532;13.336;2023-03-01T05:43:43;102582.94;;;1.20;75.40
16595;BME280;8410;52.532;13.336;2023-03-01T05:46:12;102569.75;;;1.56;75.41
16595;BME280;8410;52.532;13.336;2023-03-01T05:48:41;102567.03;;;1.65;73.74
16595;BME280;8410;52.532;13.336;2023-03-01T05:51:10;102571.50;;;1.25;74.54
16595;BME280;8410;52.532;13.336;2023-03-01T05:53:38;102569.66;;;1.44;74.01
16595;BME280;8410;52.532;13.336;2023-03-01T05:56:05;102573.59;;;1.41;74.20
16595;BME280;8410;52.532;13.336;2023-03-01T05:58:33;102581.88;;;1.28;74.94
16595;BME280;8410;52.532;13.336;2023-03-01T06:01:00;102585.91;;;1.68;73.88
16595;BME280;8410;52.532;13.336;2023-03-01T06:03:29;102576.72;;;1.81;72.42
16595;BME280;8410;52.532;13.336;2023-03-01T06:05:57;102573.47;;;1.71;73.06
16595;BME280;8410;52.532;13.336;2023-03-01T06:08:25;102577.72;;;1.61;73.88
16595;BME280;8410;52.532;13.336;2023-03-01T06:10:53;102581.50;;;1.66;74.03
16595;BME280;8410;52.532;13.336;2023-03-01T06:13:21;102582.66;;;2.03;73.25
16595;BME280;8410;52.532;13.336;2023-03-01T06:15:49;102581.75;;;1.69;73.85
16595;BME280;8410;52.532;13.336;2023-03-01T06:18:17;102585.63;;;1.53;74.00
16595;BME280;8410;52.532;13.336;2023-03-01T06:20:52;102576.59;;;1.79;74.18
16595;BME280;8410;52.532;13.336;2023-03-01T06:23:20;102577.59;;;1.59;74.27
16595;BME280;8410;52.532;13.336;2023-03-01T06:25:47;102584.72;;;1.53;75.74
16595;BME280;8410;52.532;13.336;2023-03-01T06:28:15;102580.19;;;1.39;75.45
16595;BME280;8410;52.532;13.336;2023-03-01T06:30:42;102583.31;;;1.57;76.39
16595;BME280;8410;52.532;13.336;2023-03-01T06:33:10;102575.13;;;1.93;75.04
16595;BME280;8410;52.532;13.336;2023-03-01T06:35:37;102581.97;;;1.94;75.61
16595;BME280;8410;52.532;13.336;2023-03-01T06:38:06;102580.38;;;2.06;74.81
16595;BME280;8410;52.532;13.336;2023-03-01T06:40:34;102583.25;;;2.11;74.69
16595;BME280;8410;52.532;13.336;2023-03-01T06:43:02;102587.66;;;2.02;74.21
16595;BME280;8410;52.532;13.336;2023-03-01T06:45:29;102585.44;;;2.28;74.43
16595;BME280;8410;52.532;13.336;2023-03-01T06:48:04;102592.97;;;2.05;74.18
16595;BME280;8410;52.532;13.336;2023-03-01T06:50:32;102584.78;;;2.31;73.96
16595;BME280;8410;52.532;13.336;2023-03-01T06:53:00;102588.13;;;2.41;74.02
16595;BME280;8410;52.532;13.336;2023-03-01T06:55:29;102597.63;;;1.88;75.18
16595;BME280;8410;52.532;13.336;2023-03-01T06:57:58;102593.19;;;1.86;77.34
16595;BME280;8410;52.532;13.336;2023-03-01T07:00:26;102597.25;;;1.84;77.27
16595;BME280;8410;52.532;13.336;2023-03-01T07:02:55;102593.19;;;2.08;76.97
16595;BME280;8410;52.532;13.336;2023-03-01T07:05:25;102590.34;;;2.15;76.46
16595;BME280;8410;52.532;13.336;2023-03-01T07:07:53;102586.75;;;2.23;76.15
16595;BME280;8410;52.532;13.336;2023-03-01T07:10:21;102592.66;;;2.12;75.36
16595;BME280;8410;52.532;13.336;2023-03-01T07:12:50;102602.66;;;1.98;77.05
16595;BME280;8410;52.532;13.336;2023-03-01T07:15:17;102604.69;;;1.92;76.73
16595;BME280;8410;52.532;13.336;2023-03-01T07:17:45;102603.31;;;1.96;77.72
16595;BME280;8410;52.532;13.336;2023-03-01T07:20:14;102601.66;;;1.96;77.23
16595;BME280;8410;52.532;13.336;2023-03-01T07:22:42;102596.84;;;2.33;75.84
16595;BME280;8410;52.532;13.336;2023-03-01T07:25:10;102592.09;;;2.38;76.68
16595;BME280;8410;52.532;13.336;2023-03-01T07:27:37;102597.00;;;2.47;75.35
16595;BME280;8410;52.532;13.336;2023-03-01T07:30:08;102593.13;;;2.52;75.49
16595;BME280;8410;52.532;13.336;2023-03-01T07:32:35;102591.63;;;2.65;75.39
16595;BME280;8410;52.532;13.336;2023-03-01T07:35:04;102592.94;;;2.72;74.53
16595;BME280;8410;52.532;13.336;2023-03-01T07:37:32;102596.03;;;2.68;75.12
16595;BME280;8410;52.532;13.336;2023-03-01T07:39:59;102598.72;;;2.81;75.19
16595;BME280;8410;52.532;13.336;2023-03-01T07:42:27;102602.66;;;2.66;75.29
16595;BME280;8410;52.532;13.336;2023-03-01T07:44:54;102590.34;;;2.94;74.67
16595;BME280;8410;52.532;13.336;2023-03-01T07:47:23;102584.69;;;3.10;74.05
16595;BME280;8410;52.532;13.336;2023-03-01T07:49:50;102589.22;;;2.91;73.84
16595;BME280;8410;52.532;13.336;2023-03-01T07:52:18;102594.28;;;2.79;74.91
16595;BME280;8410;52.532;13.336;2023-03-01T07:54:46;102592.09;;;3.07;73.98
16595;BME280;8410;52.532;13.336;2023-03-01T07:57:13;102586.13;;;2.95;74.15
16595;BME280;8410;52.532;13.336;2023-03-01T07:59:41;102589.66;;;3.44;72.34
16595;BME280;8410;52.532;13.336;2023-03-01T08:02:08;102591.06;;;3.52;72.37
16595;BME280;8410;52.532;13.336;2023-03-01T08:04:38;102596.84;;;3.61;72.90
16595;BME280;8410;52.532;13.336;2023-03-01T08:07:06;102580.59;;;3.84;71.47
16595;BME280;8410;52.532;13.336;2023-03-01T08:09:34;102593.31;;;3.84;71.81
16595;BME280;8410;52.532;13.336;2023-03-01T08:12:02;102584.19;;;4.00;70.53
16595;BME280;8410;52.532;13.336;2023-03-01T08:14:31;102576.69;;;3.89;71.06
16595;BME280;8410;52.532;13.336;2023-03-01T08:16:58;102576.91;;;3.92;70.51
16595;BME280;8410;52.532;13.336;2023-03-01T08:19:26;102573.28;;;4.14;69.89
16595;BME280;8410;52.532;13.336;2023-03-01T08:21:55;102580.88;;;4.26;69.36
16595;BME280;8410;52.532;13.336;2023-03-01T08:24:25;102569.13;;;4.41;69.37
16595;BME280;8410;52.532;13.336;2023-03-01T08:26:53;102567.88;;;4.34;68.96
16595;BME280;8410;52.532;13.336;2023-03-01T08:29:20;102572.88;;;4.46;69.09
16595;BME280;8410;52.532;13.336;2023-03-01T08:31:48;102567.00;;;4.34;68.65
16595;BME280;8410;52.532;13.336;2023-03-01T08:34:17;102560.94;;;4.45;68.82
16595;BME280;8410;52.532;13.336;2023-03-01T08:36:46;102551.47;;;4.69;67.78
16595;BME280;8410;52.532;13.336;2023-03-01T08:39:16;102552.34;;;4.96;66.07
16595;BME280;8410;52.532;13.336;2023-03-01T08:41:46;102560.63;;;4.92;66.58
16595;BME280;8410;52.532;13.336;2023-03-01T08:44:15;102560.22;;;4.99;64.91
16595;BME280;8410;52.532;13.336;2023-03-01T08:46:44;102556.69;;;5.11;64.41
16595;BME280;8410;52.532;13.336;2023-03-01T08:49:13;102547.34;;;4.58;64.20
16595;BME280;8410;52.532;13.336;2023-03-01T08:51:41;102561.06;;;4.60;64.98
16595;BME280;8410;52.532;13.336;2023-03-01T08:54:11;102556.28;;;4.91;64.34
16595;BME280;8410;52.532;13.336;2023-03-01T08:56:41;102558.38;;;4.45;65.81
16595;BME280;8410;52.532;13.336;2023-03-01T08:59:09;102560.06;;;4.45;64.97
16595;BME280;8410;52.532;13.336;2023-03-01T09:01:37;102550.00;;;5.13;64.29
16595;BME280;8410;52.532;13.336;2023-03-01T09:04:04;102544.88;;;5.39;63.03
16595;BME280;8410;52.532;13.336;2023-03-01T09:06:33;102538.84;;;4.97;63.52
16595;BME280;8410;52.532;13.336;2023-03-01T09:09:02;102541.28;;;5.50;62.31
16595;BME280;8410;52.532;13.336;2023-03-01T09:11:30;102533.25;;;5.44;62.14
16595;BME280;8410;52.532;13.336;2023-03-01T09:13:59;102541.75;;;5.30;61.56
16595;BME280;8410;52.532;13.336;2023-03-01T09:16:26;102530.59;;;5.84;61.81
16595;BME280;8410;52.532;13.336;2023-03-01T09:18:56;102536.63;;;5.43;61.29
16595;BME280;8410;52.532;13.336;2023-03-01T09:21:24;102538.06;;;5.40;61.68
16595;BME280;8410;52.532;13.336;2023-03-01T09:24:07;102537.84;;;5.08;62.20
16595;BME280;8410;52.532;13.336;2023-03-01T09:26:39;102542.53;;;5.02;62.04
16595;BME280;8410;52.532;13.336;2023-03-01T09:29:08;102545.03;;;4.36;64.19
16595;BME280;8410;52.532;13.336;2023-03-01T09:31:36;102540.34;;;4.55;63.23
16595;BME280;8410;52.532;13.336;2023-03-01T09:34:04;102529.16;;;5.33;62.33
16595;BME280;8410;52.532;13.336;2023-03-01T09:36:33;102524.31;;;5.51;61.41
16595;BME280;8410;52.532;13.336;2023-03-01T09:39:01;102533.72;;;4.84;62.12
16595;BME280;8410;52.532;13.336;2023-03-01T09:41:44;102528.13;;;5.16;62.44
16595;BME280;8410;52.532;13.336;2023-03-01T09:44:25;102538.03;;;5.25;62.35
16595;BME280;8410;52.532;13.336;2023-03-01T09:46:55;102532.31;;;5.02;63.60
16595;BME280;8410;52.532;13.336;2023-03-01T09:49:25;102522.97;;;5.71;61.86
16595;BME280;8410;52.532;13.336;2023-03-01T09:51:58;102528.91;;;5.98;61.52
16595;BME280;8410;52.532;13.336;2023-03-01T09:54:26;102518.81;;;6.44;59.43
16595;BME280;8410;52.532;13.336;2023-03-01T09:57:04;102529.34;;;5.36;61.39
16595;BME280;8410;52.532;13.336;2023-03-01T09:59:47;102527.69;;;6.06;60.37
16595;BME280;8410;52.532;13.336;2023-03-01T10:02:24;102518.91;;;6.46;60.13
16595;BME280;8410;52.532;13.336;2023-03-01T10:04:55;102520.38;;;5.84;60.31
16595;BME280;8410;52.532;13.336;2023-03-01T10:07:32;102520.47;;;5.86;61.12
16595;BME280;8410;52.532;13.336;2023-03-01T10:10:05;102531.31;;;5.40;61.39
16595;BME280;8410;52.532;13.336;2023-03-01T10:12:35;102529.09;;;5.88;61.07
16595;BME280;8410;52.532;13.336;2023-03-01T10:15:10;102533.84;;;5.53;60.95
16595;BME280;8410;52.532;13.336;2023-03-01T10:17:42;102537.19;;;5.52;61.71
16595;BME280;8410;52.532;13.336;2023-03-01T10:20:19;102538.38;;;5.44;61.13
16595;BME280;8410;52.532;13.336;2023-03-01T10:22:47;102531.63;;;5.73;60.57
16595;BME280;8410;52.532;13.336;2023-03-01T10:25:26;102517.47;;;6.21;60.29
16595;BME280;8410;52.532;13.336;2023-03-01T10:28:02;102519.06;;;6.78;58.25
16595;BME280;8410;52.532;13.336;2023-03-01T10:30:36;102507.38;;;7.29;57.67
16595;BME280;8410;52.532;13.336;2023-03-01T10:33:13;102508.34;;;7.32;55.32
16595;BME280;8410;52.532;13.336;2023-03-01T10:35:43;102509.00;;;6.22;55.93
16595;BME280;8410;52.532;13.336;2023-03-01T10:38:12;102509.53;;;6.02;55.67
16595;BME280;8410;52.532;13.336;2023-03-01T10:40:50;102510.56;;;5.77;55.12
16595;BME280;8410;52.532;13.336;2023-03-01T10:43:19;102509.16;;;5.95;55.07
16595;BME280;8410;52.532;13.336;2023-03-01T10:45:48;102508.94;;;5.92;54.94
16595;BME280;8410;52.532;13.336;2023-03-01T10:48:17;102488.63;;;7.14;54.19
16595;BME280;8410;52.532;13.336;2023-03-01T10:50:47;102487.50;;;6.63;53.42
16595;BME280;8410;52.532;13.336;2023-03-01T10:53:24;102487.16;;;6.12;54.54
16595;BME280;8410;52.532;13.336;2023-03-01T10:55:58;102493.63;;;6.81;53.90
16595;BME280;8410;52.532;13.336;2023-03-01T10:58:26;102491.00;;;6.65;55.10
16595;BME280;8410;52.532;13.336;2023-03-01T11:00:57;102475.59;;;7.75;53.62
16595;BME280;8410;52.532;13.336;2023-03-01T11:03:27;102470.41;;;7.41;52.84
16595;BME280;8410;52.532;13.336;2023-03-01T11:05:58;102471.28;;;7.25;52.72
16595;BME280;8410;52.532;13.336;2023-03-01T11:08:35;102470.41;;;7.24;52.62
16595;BME280;8410;52.532;13.336;2023-03-01T11:11:06;102468.91;;;7.13;52.29
16595;BME280;8410;52.532;13.336;2023-03-01T11:13:34;102459.13;;;6.90;52.75
16595;BME280;8410;52.532;13.336;2023-03-01T11:16:09;102458.72;;;7.79;51.01
16595;BME280;8410;52.532;13.336;2023-03-01T11:18:38;102447.41;;;7.75;50.61
16595;BME280;8410;52.532;13.336;2023-03-01T11:21:15;102446.69;;;7.78;50.47
16595;BME280;8410;52.532;13.336;2023-03-01T11:23:45;102442.22;;;7.73;50.58
16595;BME280;8410;52.532;13.336;2023-03-01T11:26:15;102444.38;;;7.33;50.12
16595;BME280;8410;52.532;13.336;2023-03-01T11:28:49;102449.69;;;7.05;50.05
16595;BME280;8410;52.532;13.336;2023-03-01T11:31:20;102442.84;;;7.69;48.57
16595;BME280;8410;52.532;13.336;2023-03-01T11:33:53;102438.06;;;8.28;48.54
16595;BME280;8410;52.532;13.336;2023-03-01T11:36:28;102436.22;;;8.59;47.23
16595;BME280;8410;52.532;13.336;2023-03-01T11:39:02;102439.66;;;7.24;49.53
16595;BME280;8410;52.532;13.336;2023-03-01T11:41:33;102437.31;;;7.29;50.59
16595;BME280;8410;52.532;13.336;2023-03-01T11:44:07;102440.44;;;7.56;47.86
16595;BME280;8410;52.532;13.336;2023-03-01T11:47:05;102438.06;;;8.28;46.56
16595;BME280;8410;52.532;13.336;2023-03-01T11:49:52;102436.59;;;7.64;46.14
16595;BME280;8410;52.532;13.336;2023-03-01T11:52:30;102437.97;;;7.58;45.72
16595;BME280;8410;52.532;13.336;2023-03-01T11:55:19;102442.16;;;7.08;44.83
16595;BME280;8410;52.532;13.336;2023-03-01T11:58:15;102437.72;;;7.86;44.97
16595;BME280;8410;52.532;13.336;2023-03-01T12:01:03;102438.88;;;8.43;43.51
16595;BME280;8410;52.532;13.336;2023-03-01T12:03:49;102438.44;;;7.18;46.49
16595;BME280;8410;52.532;13.336;2023-03-01T12:06:26;102433.22;;;7.82;47.01
16595;BME280;8410;52.532;13.336;2023-03-01T12:09:09;102429.94;;;8.18;45.81
16595;BME280;8410;52.532;13.336;2023-03-01T12:11:50;102420.09;;;8.44;45.13
16595;BME280;8410;52.532;13.336;2023-03-01T12:14:39;102418.66;;;8.33;44.26
16595;BME280;8410;52.532;13.336;2023-03-01T12:17:36;102410.19;;;7.65;44.64
16595;BME280;8410;52.532;13.336;2023-03-01T12:20:19;102419.88;;;8.05;45.53
16595;BME280;8410;52.532;13.336;2023-03-01T12:23:02;102398.66;;;8.79;44.45
16595;BME280;8410;52.532;13.336;2023-03-01T12:25:49;102398.94;;;8.68;43.96
16595;BME280;8410;52.532;13.336;2023-03-01T12:28:32;102403.94;;;7.60;44.86
16595;BME280;8410;52.532;13.336;2023-03-01T12:31:14;102398.44;;;7.87;43.52
16595;BME280;8410;52.532;13.336;2023-03-01T12:33:49;102399.38;;;8.05;44.88
16595;BME280;8410;52.532;13.336;2023-03-01T12:36:39;102390.16;;;8.63;44.27
16595;BME280;8410;52.532;13.336;2023-03-01T12:39:30;102392.34;;;8.37;43.06
16595;BME280;8410;52.532;13.336;2023-03-01T12:42:11;102385.63;;;7.20;45.79
16595;BME280;8410;52.532;13.336;2023-03-01T12:45:01;102385.47;;;7.17;45.81
16595;BME280;8410;52.532;13.336;2023-03-01T12:47:45;102372.50;;;7.81;45.78
16595;BME280;8410;52.532;13.336;2023-03-01T12:50:20;102375.53;;;8.26;43.12
16595;BME280;8410;52.532;13.336;2023-03-01T12:52:52;102369.75;;;8.12;43.43
16595;BME280;8410;52.532;13.336;2023-03-01T12:55:27;102359.59;;;7.79;44.24
16595;BME280;8410;52.532;13.336;2023-03-01T12:58:02;102354.00;;;8.58;42.82
16595;BME280;8410;52.532;13.336;2023-03-01T13:00:35;102364.03;;;8.17;41.00
16595;BME280;8410;52.532;13.336;2023-03-01T13:03:14;102366.66;;;8.01;41.92
16595;BME280;8410;52.532;13.336;2023-03-01T13:06:00;102352.03;;;8.16;41.72
16595;BME280;8410;52.532;13.336;2023-03-01T13:08:39;102364.44;;;7.91;41.00
16595;BME280;8410;52.532;13.336;2023-03-01T13:11:16;102357.16;;;8.16;40.70
16595;BME280;8410;52.532;13.336;2023-03-01T13:13:44;102345.16;;;8.51;41.53
16595;BME280;8410;52.532;13.336;2023-03-01T13:16:39;102335.59;;;8.86;40.60
16595;BME280;8410;52.532;13.336;2023-03-01T13:19:12;102344.41;;;8.00;40.54
16595;BME280;8410;52.532;13.336;2023-03-01T13:21:42;102348.91;;;7.88;41.73
16595;BME280;8410;52.532;13.336;2023-03-01T13:24:26;102345.94;;;7.62;43.31